createdAt,value
2018-10-18T00:01:10.092Z,15.33
2018-10-18T00:03:38.570Z,15.32
2018-10-18T00:06:07.177Z,15.21
2018-10-18T00:08:36.228Z,15.15
2018-10-18T00:11:04.820Z,15.15
2018-10-18T00:13:33.380Z,15.17
2018-10-18T00:16:02.074Z,15.15
2018-10-18T00:18:30.648Z,15.09
2018-10-18T00:20:59.124Z,15.01
2018-10-18T00:23:27.836Z,14.92
2018-10-18T00:25:56.345Z,14.93
2018-10-18T00:28:24.853Z,14.90
2018-10-18T00:30:53.443Z,14.90
2018-10-18T00:33:22.034Z,14.89
2018-10-18T00:35:50.617Z,14.91
2018-10-18T00:38:19.123Z,14.92
2018-10-18T00:40:47.544Z,14.86
2018-10-18T00:43:17.207Z,14.82
2018-10-18T00:45:45.651Z,14.81
2018-10-18T00:48:14.299Z,14.78
2018-10-18T00:50:43.462Z,14.78
2018-10-18T00:53:12.043Z,14.76
2018-10-18T00:55:40.873Z,14.77
2018-10-18T00:58:09.505Z,14.80
2018-10-18T01:00:38.422Z,14.81
2018-10-18T01:03:07.073Z,14.89
2018-10-18T01:05:35.700Z,14.77
2018-10-18T01:08:04.635Z,14.73
2018-10-18T01:10:33.188Z,14.72
2018-10-18T01:13:01.848Z,14.74
2018-10-18T01:15:30.371Z,14.71
2018-10-18T01:17:58.853Z,14.66
2018-10-18T01:20:27.408Z,14.62
2018-10-18T01:22:55.858Z,14.63
2018-10-18T01:25:24.346Z,14.68
2018-10-18T01:27:53.485Z,14.68
2018-10-18T01:30:21.942Z,14.71
2018-10-18T01:32:50.485Z,14.71
2018-10-18T01:35:19.356Z,14.75
2018-10-18T01:37:49.508Z,14.81
2018-10-18T01:40:18.159Z,14.83
2018-10-18T01:42:46.755Z,14.79
2018-10-18T01:45:15.264Z,14.86
2018-10-18T01:47:43.756Z,14.90
2018-10-18T01:50:12.454Z,14.92
2018-10-18T01:52:41.603Z,14.97
2018-10-18T01:55:10.157Z,15.00
2018-10-18T01:57:38.673Z,15.03
2018-10-18T02:00:08.375Z,14.99
2018-10-18T02:02:36.883Z,14.90
2018-10-18T02:05:05.530Z,14.89
2018-10-18T02:07:34.113Z,14.94
2018-10-18T02:10:02.709Z,14.94
2018-10-18T02:12:31.260Z,14.97
2018-10-18T02:14:59.677Z,14.94
2018-10-18T02:17:29.113Z,14.93
2018-10-18T02:19:57.832Z,14.95
2018-10-18T02:22:26.328Z,14.92
2018-10-18T02:24:55.015Z,14.92
2018-10-18T02:27:24.487Z,14.93
2018-10-18T02:29:53.274Z,15.03
2018-10-18T02:32:22.466Z,15.10
2018-10-18T02:34:50.926Z,15.13
2018-10-18T02:37:19.686Z,15.17
2018-10-18T02:39:48.299Z,15.21
2018-10-18T02:42:17.090Z,15.21
2018-10-18T02:44:45.559Z,15.23
2018-10-18T02:47:14.181Z,15.27
2018-10-18T02:49:42.886Z,15.22
2018-10-18T02:52:11.820Z,15.17
2018-10-18T02:54:40.410Z,15.13
2018-10-18T02:57:08.952Z,15.13
2018-10-18T02:59:37.440Z,15.10
2018-10-18T03:02:06.770Z,15.05
2018-10-18T03:04:35.252Z,15.08
2018-10-18T03:07:04.903Z,15.11
2018-10-18T03:09:34.261Z,15.15
2018-10-18T03:12:02.774Z,15.18
2018-10-18T03:14:31.401Z,15.17
2018-10-18T03:17:00.085Z,15.14
2018-10-18T03:19:28.686Z,15.13
2018-10-18T03:21:57.267Z,15.11
2018-10-18T03:24:25.745Z,15.12
2018-10-18T03:26:54.208Z,15.13
2018-10-18T03:29:22.725Z,15.11
2018-10-18T03:31:51.460Z,15.13
2018-10-18T03:34:20.644Z,15.19
2018-10-18T03:36:49.224Z,15.22
2018-10-18T03:39:17.733Z,15.20
2018-10-18T03:41:46.981Z,15.21
2018-10-18T03:44:15.592Z,15.25
2018-10-18T03:46:44.077Z,15.32
2018-10-18T03:49:12.666Z,15.35
2018-10-18T03:51:41.101Z,15.40
2018-10-18T03:54:09.763Z,15.44
2018-10-18T03:56:38.214Z,15.48
2018-10-18T03:59:07.157Z,15.51
2018-10-18T04:01:35.622Z,15.52
2018-10-18T04:04:04.093Z,15.50
2018-10-18T04:06:32.676Z,15.44
2018-10-18T04:09:01.265Z,15.44
2018-10-18T04:11:29.771Z,15.43
2018-10-18T04:13:58.211Z,15.45
2018-10-18T04:16:28.252Z,15.52
2018-10-18T04:18:56.820Z,15.56
2018-10-18T04:21:27.002Z,15.53
2018-10-18T04:23:55.529Z,15.52
2018-10-18T04:26:23.954Z,15.52
2018-10-18T04:28:52.706Z,15.54
2018-10-18T04:31:21.242Z,15.56
2018-10-18T04:33:49.730Z,15.59
2018-10-18T04:36:18.293Z,15.57
2018-10-18T04:38:46.750Z,15.57
2018-10-18T04:41:15.975Z,15.54
2018-10-18T04:43:44.690Z,15.57
2018-10-18T04:46:13.199Z,15.61
2018-10-18T04:48:42.148Z,15.60
2018-10-18T04:51:10.643Z,15.60
2018-10-18T04:53:39.179Z,15.57
2018-10-18T04:56:07.661Z,15.59
2018-10-18T04:58:36.168Z,15.59
2018-10-18T05:01:04.624Z,15.57
2018-10-18T05:03:34.097Z,15.57
2018-10-18T05:06:03.987Z,15.58
2018-10-18T05:08:32.473Z,15.58
2018-10-18T05:11:01.174Z,15.57
2018-10-18T05:13:29.738Z,15.60
2018-10-18T05:15:59.047Z,15.60
2018-10-18T05:18:27.520Z,15.52
2018-10-18T05:20:56.384Z,15.50
2018-10-18T05:23:25.096Z,15.53
2018-10-18T05:25:53.589Z,15.53
2018-10-18T05:28:22.304Z,15.52
2018-10-18T05:30:50.855Z,15.54
2018-10-18T05:33:19.326Z,15.55
2018-10-18T05:35:47.960Z,15.52
2018-10-18T05:38:17.038Z,15.53
2018-10-18T05:40:45.965Z,15.56
2018-10-18T05:43:14.511Z,15.58
2018-10-18T05:45:42.905Z,15.60
2018-10-18T05:48:11.830Z,15.57
2018-10-18T05:50:40.252Z,15.52
2018-10-18T05:53:08.972Z,15.52
2018-10-18T05:55:37.327Z,15.51
2018-10-18T05:58:06.095Z,15.51
2018-10-18T06:00:34.634Z,15.44
2018-10-18T06:03:03.187Z,15.44
2018-10-18T06:05:31.640Z,15.40
2018-10-18T06:08:00.200Z,15.32
2018-10-18T06:10:39.809Z,15.30
2018-10-18T06:13:08.522Z,15.24
2018-10-18T06:15:37.572Z,15.21
2018-10-18T06:18:06.447Z,15.24
2018-10-18T06:20:35.004Z,15.21
2018-10-18T06:23:03.619Z,15.17
2018-10-18T06:25:32.026Z,15.12
2018-10-18T06:28:00.997Z,15.13
2018-10-18T06:30:29.513Z,15.15
2018-10-18T06:32:57.971Z,15.22
2018-10-18T06:35:26.569Z,15.25
2018-10-18T06:37:55.129Z,15.27
2018-10-18T06:40:23.729Z,15.31
2018-10-18T06:42:52.525Z,15.36
2018-10-18T06:45:21.202Z,15.36
2018-10-18T06:47:49.849Z,15.38
2018-10-18T06:50:19.795Z,15.42
2018-10-18T06:52:48.463Z,15.45
2018-10-18T06:55:17.288Z,15.52
2018-10-18T06:57:46.413Z,15.53
2018-10-18T07:00:20.741Z,15.54
2018-10-18T07:02:50.130Z,15.53
2018-10-18T07:05:18.863Z,15.52
2018-10-18T07:07:47.499Z,15.55
2018-10-18T07:10:16.713Z,15.51
2018-10-18T07:12:49.497Z,15.55
2018-10-18T07:15:19.050Z,15.59
2018-10-18T07:17:48.578Z,15.61
2018-10-18T07:20:18.347Z,15.62
2018-10-18T07:22:47.287Z,15.57
2018-10-18T07:25:18.584Z,15.51
2018-10-18T07:27:47.124Z,15.38
2018-10-18T07:30:16.314Z,15.37
2018-10-18T07:32:45.223Z,15.38
2018-10-18T07:35:15.093Z,15.44
2018-10-18T07:37:43.680Z,15.48
2018-10-18T07:40:15.507Z,15.54
2018-10-18T07:42:44.673Z,15.55
2018-10-18T07:45:13.919Z,15.49
2018-10-18T07:47:43.049Z,15.49
2018-10-18T07:50:12.165Z,15.52
2018-10-18T07:52:40.731Z,15.45
2018-10-18T07:57:47.858Z,15.39
2018-10-18T08:00:16.828Z,15.32
2018-10-18T08:02:46.030Z,15.30
2018-10-18T08:05:15.150Z,15.38
2018-10-18T08:07:43.934Z,15.43
2018-10-18T08:10:19.793Z,15.46
2018-10-18T08:12:48.276Z,15.46
2018-10-18T08:15:17.543Z,15.46
2018-10-18T08:17:46.524Z,15.42
2018-10-18T08:20:15.414Z,15.37
2018-10-18T08:22:44.494Z,15.27
2018-10-18T08:25:13.057Z,15.32
2018-10-18T08:27:41.582Z,15.36
2018-10-18T08:30:11.985Z,15.37
2018-10-18T08:32:40.827Z,15.37
2018-10-18T08:35:10.500Z,15.44
2018-10-18T08:37:39.556Z,15.45
2018-10-18T08:40:14.869Z,15.41
2018-10-18T08:42:43.574Z,15.42
2018-10-18T08:45:12.625Z,15.47
2018-10-18T08:47:41.828Z,15.45
2018-10-18T08:50:12.192Z,15.41
2018-10-18T08:52:40.966Z,15.34
2018-10-18T08:55:12.302Z,15.38
2018-10-18T08:57:41.112Z,15.48
2018-10-18T09:00:11.373Z,15.46
2018-10-18T09:02:40.841Z,15.50
2018-10-18T09:05:09.754Z,15.53
2018-10-18T09:07:38.601Z,15.55
2018-10-18T09:10:08.007Z,15.65
2018-10-18T09:12:36.941Z,15.77
2018-10-18T09:15:07.505Z,15.82
2018-10-18T09:17:37.337Z,15.83
2018-10-18T09:25:00.407Z,15.81
2018-10-18T09:27:29.640Z,15.92
2018-10-18T09:29:58.333Z,16.04
2018-10-18T09:32:26.985Z,16.21
2018-10-18T09:34:55.469Z,16.47
2018-10-18T09:37:24.298Z,16.63
2018-10-18T09:39:53.689Z,16.68
2018-10-18T09:42:23.135Z,16.75
2018-10-18T09:44:51.596Z,16.78
2018-10-18T09:47:20.181Z,16.73
2018-10-18T09:49:48.893Z,16.78
2018-10-18T09:52:17.856Z,16.82
2018-10-18T09:54:46.631Z,16.95
2018-10-18T09:57:15.217Z,17.01
2018-10-18T09:59:47.824Z,17.08
2018-10-18T10:02:22.175Z,17.13
2018-10-18T10:04:50.623Z,17.13
2018-10-18T10:07:19.354Z,17.08
2018-10-18T10:09:47.868Z,17.03
2018-10-18T10:12:17.256Z,17.19
2018-10-18T10:14:45.974Z,17.43
2018-10-18T10:17:14.560Z,17.72
2018-10-18T10:19:43.948Z,18.06
2018-10-18T10:22:12.454Z,18.37
2018-10-18T16:46:03.753Z,16.43
2018-10-18T16:48:32.186Z,16.36
2018-10-18T16:51:01.734Z,16.35
2018-10-18T16:53:30.528Z,16.32
2018-10-18T16:55:59.293Z,16.35
2018-10-18T16:58:28.318Z,16.31
2018-10-18T17:00:56.813Z,16.25
2018-10-18T17:03:25.508Z,16.28
2018-10-18T17:05:55.218Z,16.34
2018-10-18T17:08:23.850Z,16.23
2018-10-18T17:10:52.722Z,16.22
2018-10-18T17:13:21.648Z,16.22
2018-10-18T17:15:50.198Z,16.19
2018-10-18T17:18:18.794Z,16.24
2018-10-18T17:20:47.459Z,16.28
2018-10-18T17:23:16.064Z,16.32
2018-10-18T17:25:44.725Z,16.25
2018-10-18T17:28:13.452Z,16.27
2018-10-18T17:30:42.222Z,16.28
2018-10-18T17:33:11.528Z,16.20
2018-10-18T17:35:40.264Z,16.10
2018-10-18T17:38:09.129Z,16.11
2018-10-18T17:40:38.031Z,16.15
2018-10-18T17:43:06.615Z,16.22
2018-10-18T17:45:35.534Z,16.27
2018-10-18T17:48:04.550Z,16.26
2018-10-18T17:50:33.144Z,16.26
2018-10-18T17:53:01.999Z,16.24
2018-10-18T17:55:31.302Z,16.28
2018-10-18T17:58:00.714Z,16.29
2018-10-18T18:00:29.214Z,16.33
2018-10-18T18:02:57.852Z,16.30
2018-10-18T18:05:26.578Z,16.27
2018-10-18T18:07:55.175Z,16.28
2018-10-18T18:10:24.476Z,16.27
2018-10-18T18:12:53.167Z,16.28
2018-10-18T18:32:57.330Z,16.28
2018-10-18T18:35:26.348Z,16.23
2018-10-18T18:38:01.758Z,16.22
2018-10-18T18:40:31.578Z,16.22
2018-10-18T18:43:00.511Z,16.22
2018-10-18T18:45:34.851Z,16.14
2018-10-18T18:48:04.690Z,16.14
2018-10-18T18:50:34.080Z,16.12
2018-10-18T18:53:03.264Z,16.12
2018-10-18T18:55:31.941Z,16.12
2018-10-18T18:58:01.247Z,16.15
2018-10-18T19:00:30.238Z,16.17
2018-10-18T19:02:59.018Z,16.20
2018-10-18T19:05:29.289Z,16.20
2018-10-18T19:07:58.281Z,16.20
2018-10-18T19:10:27.108Z,16.18
2018-10-18T19:12:55.692Z,16.18
2018-10-18T19:15:24.576Z,16.20
2018-10-18T19:17:53.499Z,16.20
2018-10-18T19:20:22.462Z,16.21
2018-10-18T19:22:51.373Z,16.21
2018-10-18T19:25:20.057Z,16.18
2018-10-18T19:27:48.736Z,16.18
2018-10-18T19:30:18.209Z,16.16
2018-10-18T19:32:47.471Z,16.14
2018-10-18T19:35:16.435Z,16.12
2018-10-18T19:37:48.488Z,16.11
2018-10-18T19:40:17.931Z,16.08
2018-10-18T19:42:46.552Z,16.06
2018-10-18T19:45:15.232Z,16.04
2018-10-18T19:47:44.005Z,16.02
2018-10-18T19:50:13.230Z,15.99
2018-10-18T19:52:42.711Z,15.97
2018-10-18T19:55:12.536Z,15.97
2018-10-18T19:57:41.477Z,15.96
2018-10-18T20:00:10.676Z,15.95
2018-10-18T20:02:39.327Z,15.92
2018-10-18T20:05:08.586Z,15.94
2018-10-18T20:07:38.313Z,15.96
2018-10-18T20:10:08.774Z,15.99
2018-10-18T20:12:37.439Z,15.95
2018-10-18T20:15:07.818Z,15.93
2018-10-18T20:17:36.469Z,15.93
2018-10-18T20:20:06.052Z,15.90
2018-10-18T20:22:39.600Z,15.84
2018-10-18T20:25:09.225Z,15.75
2018-10-18T20:27:38.215Z,15.72
2018-10-18T20:30:11.285Z,15.68
2018-10-18T20:32:39.922Z,15.61
2018-10-18T20:35:09.293Z,15.53
2018-10-18T20:37:38.175Z,15.49
2018-10-18T20:40:09.148Z,15.42
2018-10-18T20:42:37.712Z,15.46
2018-10-18T20:45:07.916Z,15.48
2018-10-18T20:47:37.101Z,15.48
2018-10-18T20:50:06.069Z,15.45
2018-10-18T20:52:35.310Z,15.43
2018-10-18T20:55:04.036Z,15.45
2018-10-18T20:57:35.824Z,15.45
2018-10-18T21:00:04.898Z,15.48
2018-10-18T21:02:34.342Z,15.48
2018-10-18T21:05:03.151Z,15.47
2018-10-18T21:07:32.115Z,15.48
2018-10-18T21:10:01.326Z,15.47
2018-10-18T21:12:30.265Z,15.48
2018-10-18T21:14:59.077Z,15.45
2018-10-18T21:17:27.664Z,15.48
2018-10-18T21:19:57.095Z,15.50
2018-10-18T21:22:26.143Z,15.47
2018-10-18T21:24:56.997Z,15.45
2018-10-18T21:27:25.660Z,15.45
2018-10-18T21:29:59.769Z,15.45
2018-10-18T21:32:28.396Z,15.40
2018-10-18T21:34:57.051Z,15.37
2018-10-18T21:37:25.648Z,15.38
2018-10-18T21:39:54.302Z,15.40
2018-10-18T21:42:22.962Z,15.39
2018-10-18T21:44:52.528Z,15.41
2018-10-18T21:47:21.420Z,15.42
2018-10-18T21:49:50.137Z,15.44
2018-10-18T21:52:19.340Z,15.46
2018-10-18T21:54:47.937Z,15.40
2018-10-18T21:57:16.517Z,15.40
2018-10-18T21:59:45.267Z,15.39
2018-10-18T22:02:14.622Z,15.35
2018-10-18T22:04:43.352Z,15.25
2018-10-18T22:07:12.121Z,15.24
2018-10-18T22:09:40.769Z,15.27
2018-10-18T22:12:09.689Z,15.30
2018-10-18T22:14:38.294Z,15.34
2018-10-18T22:17:07.071Z,15.33
2018-10-18T22:19:35.513Z,15.34
2018-10-18T22:22:04.084Z,15.33
2018-10-18T22:24:32.731Z,15.33
2018-10-18T22:27:01.304Z,15.34
2018-10-18T22:29:32.867Z,15.31
2018-10-18T22:32:01.460Z,15.28
2018-10-18T22:34:30.113Z,15.25
2018-10-18T22:36:58.610Z,15.25
2018-10-18T22:39:27.190Z,15.23
2018-10-18T22:41:56.711Z,15.23
2018-10-18T22:44:25.398Z,15.24
2018-10-18T22:46:54.104Z,15.23
2018-10-18T22:49:22.923Z,15.24
2018-10-18T22:51:52.133Z,15.22
2018-10-18T22:54:21.451Z,15.19
2018-10-18T22:56:50.090Z,15.17
2018-10-18T22:59:18.766Z,15.19
2018-10-18T23:01:47.312Z,15.18
2018-10-18T23:04:16.034Z,15.19
2018-10-18T23:06:44.849Z,15.19
2018-10-18T23:09:13.838Z,15.20
2018-10-18T23:11:42.475Z,15.17
2018-10-18T23:14:11.485Z,15.12
2018-10-18T23:16:40.463Z,15.10
2018-10-18T23:19:10.045Z,15.08
2018-10-18T23:21:38.546Z,15.07
2018-10-18T23:24:07.435Z,15.15
2018-10-18T23:26:36.220Z,15.10
2018-10-18T23:29:05.291Z,15.07
2018-10-18T23:31:33.841Z,15.08
2018-10-18T23:34:02.389Z,15.10
2018-10-18T23:36:31.289Z,15.08
2018-10-18T23:38:59.899Z,15.10
2018-10-18T23:41:28.641Z,15.12
2018-10-18T23:43:57.317Z,15.10
2018-10-18T23:46:25.934Z,15.08
2018-10-18T23:48:54.438Z,15.10
2018-10-18T23:51:23.466Z,15.04
2018-10-18T23:53:52.121Z,15.01
2018-10-18T23:56:20.652Z,15.00
2018-10-18T23:58:49.300Z,15.02
